Titusville, PA (16354)

8:18 AM EDT on April 21, 2015 (GMT -0400)
North Side | | Change Station
CLOSE
Current Station
Personal Weather Station
Location: Oil City, PA
Elevation: 1040 ft
Nearby Weather Stations

Elev 1040 ft 41.44 °N, 79.71 °W | Updated 10 seconds ago

Partly Cloudy
Partly Cloudy
45.1 °F
Feels Like 45 °F
N
2.0
Wind Variable Wind from WSW
Gusts 14.0 mph

Today
High -- | Low -- °F
--% Chance of Precip.
Yesterday
High -- | Low -- °F
Precip. -- in
6:29 AM 8:05 PM
Waxing Crescent, 10% visible
Pressure 29.71 in
Visibility 10.0 miles
Clouds Scattered Clouds 6000 ft
Windchill 45 °F
Dew Point 36 °F
Humidity 69%
Rainfall 0.00 in
Snow Depth Not available.
UV 0.6 out of 12
Pollen 10.10 out of 12
Air Quality Not available.
Flu Activity Sporadic
METAR KFKL 211155Z AUTO 22009G14KT 10SM SCT060 06/M01 A2971 RMK AO1 70021 10070 20040 52010

More Conditions Fewer Conditions

Pressure 29.71 in
Visibility 10.0 miles
Clouds Scattered Clouds 6000 ft
Windchill 45 °F
Dew Point 36 °F
Humidity 69%
Rainfall 0.00 in
Snow Depth Not available.
UV 0.6 out of 12
Pollen 10.10 out of 12
Air Quality Not available.
Flu Activity Sporadic
METAR KFKL 211155Z AUTO 22009G14KT 10SM SCT060 06/M01 A2971 RMK AO1 70021 10070 20040 52010

More Conditions Fewer Conditions

10-Day Weather Forecast

Almanac

Astronomy

Apr. 21, 2015 Rise Set
Actual Time
Civil Twilight
Nautical Twilight
Astronomical Twilight
Moon
Length of Visible Light
Length of Day
Tomorrow will be .
, % of the Moon is Illuminated

Today's Extremes

State Highs State Lows

Community

WunderPhotos

Upload Photos

1,815,351 photos uploaded!

WunderBlogs® & News

Nearby

Air Quality

  Air Quality AQ Index Pollutant
Not available.

Snow Depth

Station Depth Elevation

Earthquake Activity

City Distance Mag. Time & Date
Minimum magnitude displayed is 2.5.

Coastal Water Temperatures

Place Temperature

Stations

Nearby Weather Stations

Station Location Temp. Windchill Dew Point Humidity Wind Precip. Elev Updated Type